sensor_id;sensor_type;location;lat;lon;timestamp;temperature;humidity
31687;DHT22;18285;51.330;4.946;2024-03-08T00:17:10;23.20;30.10
31687;DHT22;18285;51.330;4.946;2024-03-08T00:41:21;23.20;30.10
31687;DHT22;18285;51.330;4.946;2024-03-08T01:05:31;23.20;29.90
31687;DHT22;18285;51.330;4.946;2024-03-08T01:29:42;23.10;29.80
31687;DHT22;18285;51.330;4.946;2024-03-08T01:53:53;23.10;29.50
31687;DHT22;18285;51.330;4.946;2024-03-08T02:18:03;23.20;29.20
31687;DHT22;18285;51.330;4.946;2024-03-08T02:42:15;23.10;29.20
31687;DHT22;18285;51.330;4.946;2024-03-08T03:06:25;23.20;29.20
31687;DHT22;18285;51.330;4.946;2024-03-08T03:30:36;23.10;28.90
31687;DHT22;18285;51.330;4.946;2024-03-08T03:54:47;23.10;28.70
31687;DHT22;18285;51.330;4.946;2024-03-08T04:18:59;23.10;28.80
31687;DHT22;18285;51.330;4.946;2024-03-08T04:43:09;23.10;28.40
31687;DHT22;18285;51.330;4.946;2024-03-08T05:07:20;23.10;28.30
31687;DHT22;18285;51.330;4.946;2024-03-08T05:31:45;23.10;28.30
31687;DHT22;18285;51.330;4.946;2024-03-08T05:55:58;23.10;28.10
31687;DHT22;18285;51.330;4.946;2024-03-08T06:20:09;23.20;27.50
31687;DHT22;18285;51.330;4.946;2024-03-08T07:08:37;23.10;28.50
31687;DHT22;18285;51.330;4.946;2024-03-08T07:32:48;23.00;28.10
31687;DHT22;18285;51.330;4.946;2024-03-08T07:56:59;23.00;28.10
31687;DHT22;18285;51.330;4.946;2024-03-08T08:21:09;23.00;28.20
31687;DHT22;18285;51.330;4.946;2024-03-08T08:45:21;23.00;28.10
31687;DHT22;18285;51.330;4.946;2024-03-08T09:09:35;23.10;28.40
31687;DHT22;18285;51.330;4.946;2024-03-08T09:33:46;23.20;28.60
31687;DHT22;18285;51.330;4.946;2024-03-08T09:57:57;23.20;29.20
31687;DHT22;18285;51.330;4.946;2024-03-08T10:22:41;23.30;29.40
31687;DHT22;18285;51.330;4.946;2024-03-08T10:47:25;23.30;29.50
31687;DHT22;18285;51.330;4.946;2024-03-08T11:11:36;23.30;29.80
31687;DHT22;18285;51.330;4.946;2024-03-08T11:35:47;23.30;30.00
31687;DHT22;18285;51.330;4.946;2024-03-08T11:59:59;23.40;29.70
31687;DHT22;18285;51.330;4.946;2024-03-08T12:24:17;23.40;30.60
31687;DHT22;18285;51.330;4.946;2024-03-08T12:48:37;23.40;30.30
31687;DHT22;18285;51.330;4.946;2024-03-08T13:12:50;23.40;30.10
31687;DHT22;18285;51.330;4.946;2024-03-08T13:37:03;23.10;28.10
31687;DHT22;18285;51.330;4.946;2024-03-08T14:01:16;23.10;27.50
31687;DHT22;18285;51.330;4.946;2024-03-08T14:25:27;23.20;28.60
31687;DHT22;18285;51.330;4.946;2024-03-08T14:49:40;23.40;28.60
31687;DHT22;18285;51.330;4.946;2024-03-08T15:13:51;23.40;28.60
31687;DHT22;18285;51.330;4.946;2024-03-08T15:38:04;23.40;27.60
31687;DHT22;18285;51.330;4.946;2024-03-08T16:02:15;23.40;28.50
31687;DHT22;18285;51.330;4.946;2024-03-08T16:26:25;23.40;28.80
31687;DHT22;18285;51.330;4.946;2024-03-08T16:50:38;23.10;25.90
31687;DHT22;18285;51.330;4.946;2024-03-08T17:39:08;23.10;28.00
31687;DHT22;18285;51.330;4.946;2024-03-08T18:03:28;23.30;28.20
31687;DHT22;18285;51.330;4.946;2024-03-08T18:27:38;22.80;26.10
31687;DHT22;18285;51.330;4.946;2024-03-08T18:51:50;21.80;26.80
31687;DHT22;18285;51.330;4.946;2024-03-08T19:16:05;21.20;27.90
31687;DHT22;18285;51.330;4.946;2024-03-08T19:40:17;20.70;27.80
31687;DHT22;18285;51.330;4.946;2024-03-08T20:28:48;21.20;28.60
31687;DHT22;18285;51.330;4.946;2024-03-08T20:53:01;21.60;30.50
31687;DHT22;18285;51.330;4.946;2024-03-08T21:17:17;22.00;30.40
31687;DHT22;18285;51.330;4.946;2024-03-08T21:41:28;22.20;30.40
31687;DHT22;18285;51.330;4.946;2024-03-08T22:05:39;22.40;30.30
31687;DHT22;18285;51.330;4.946;2024-03-08T22:29:50;22.50;29.90
31687;DHT22;18285;51.330;4.946;2024-03-08T22:54:01;22.50;30.50
31687;DHT22;18285;51.330;4.946;2024-03-08T23:18:12;22.50;30.90
31687;DHT22;18285;51.330;4.946;2024-03-08T23:42:22;22.60;31.00
